Bluewell, West Virginia
Current Conditions -  °F | °C
As of 4:52 AM on Tuesday 27 Jan 2015 (Local Time) from KBLF Reporting Station
Overcast Overcast  
Wind Chill: 10°   Ceiling: 1700
Heat Index: 21°   Visibility: 10mi
Dew Point: 13°   Wind: 10mph
Humidity: 71%   Direction: 320°NW
Pressure: 29.74"   Gusts: 21mph
Location:  37.2994°N, 81.226°W
Report Text: KBLF 270952Z AUTO 32009G18KT 300V360 10SM OVC017 M06/M11 A2974 RMK AO2 SNB13E29 SLP097 P0000 T10611106
Loading
Personal Weather Stations






























Interactive Weather Map New forecast layout! Learn more

10-Day Weather Forecast

Advertisements
Track Severe Weather on mobile